Time;durP1;ratioP1;P1;durP2;ratioP2;P2;SDS_P1;SDS_P2;PMS_P1;PMS_P2;Temp;Humidity;BMP_temperature;BMP_pressure;BME280_temperature;BME280_humidity;BME280_pressure;Samples;Min_cycle;Max_cycle;Signal;HPM_P1;HPM_P2
2022/10/15 00:00:25;;;;;;;25.83;19.08;;;11.70;99.90;;;;;;5072807;28;20044;-67
2022/10/15 00:02:51;;;;;;;27.50;20.48;;;11.70;99.90;;;;;;5072314;28;20110;-66
2022/10/15 00:05:17;;;;;;;25.42;19.60;;;11.70;99.90;;;;;;5072457;28;20123;-67
2022/10/15 00:07:42;;;;;;;29.40;21.13;;;11.70;99.90;;;;;;5071965;28;20119;-64
2022/10/15 00:10:08;;;;;;;26.88;19.98;;;11.70;99.90;;;;;;5072391;28;20036;-68
2022/10/15 00:12:34;;;;;;;28.85;20.60;;;11.70;99.90;;;;;;5072243;28;20071;-67
2022/10/15 00:14:59;;;;;;;27.73;20.55;;;11.70;99.90;;;;;;5072573;28;20054;-66
2022/10/15 00:17:25;;;;;;;29.08;19.73;;;11.60;99.90;;;;;;5072066;28;20086;-66
2022/10/15 00:19:51;;;;;;;31.17;21.58;;;11.60;99.90;;;;;;5072161;28;20160;-69
2022/10/15 00:22:16;;;;;;;28.00;21.70;;;11.60;99.90;;;;;;5090351;28;20040;-68
2022/10/15 00:24:42;;;;;;;29.52;21.25;;;11.70;99.90;;;;;;5072187;28;20063;-65
2022/10/15 00:27:08;;;;;;;28.25;21.40;;;11.70;99.90;;;;;;5072368;28;20044;-67
2022/10/15 00:29:33;;;;;;;31.75;22.00;;;11.70;99.90;;;;;;5072511;28;20048;-65
2022/10/15 00:31:59;;;;;;;33.80;23.42;;;11.70;99.90;;;;;;5072237;28;20177;-64
2022/10/15 00:34:25;;;;;;;29.98;22.77;;;11.70;99.90;;;;;;5072236;28;20043;-65
2022/10/15 00:36:50;;;;;;;33.67;24.20;;;11.70;99.90;;;;;;5071866;28;20093;-69
2022/10/15 00:39:16;;;;;;;33.28;22.67;;;11.70;99.90;;;;;;5055014;28;20060;-68
2022/10/15 00:41:43;;;;;;;36.10;24.48;;;11.70;99.90;;;;;;5090197;28;20114;-67
2022/10/15 00:44:21;;;;;;;33.55;23.05;;;11.80;99.90;;;;;;5072433;28;20520;-66
2022/10/15 00:47:02;;;;;;;31.83;24.38;;;11.80;99.90;;;;;;5071801;28;20064;-68
2022/10/15 00:49:34;;;;;;;35.92;23.77;;;11.80;99.90;;;;;;5071790;28;20116;-69
2022/10/15 00:52:15;;;;;;;31.02;24.20;;;11.80;99.90;;;;;;5071712;28;20063;-65
2022/10/15 00:54:46;;;;;;;30.95;23.52;;;11.80;99.90;;;;;;5072236;28;20085;-67
2022/10/15 00:57:13;;;;;;;29.05;21.92;;;11.80;99.90;;;;;;5072219;28;20076;-66
2022/10/15 00:59:43;;;;;;;32.75;23.02;;;11.80;99.90;;;;;;5071471;28;20123;-65
2022/10/15 01:02:09;;;;;;;30.10;22.80;;;11.80;99.90;;;;;;5054871;28;20676;-66
2022/10/15 01:04:36;;;;;;;29.75;22.30;;;11.80;99.90;;;;;;5071896;28;20533;-65
2022/10/15 01:07:02;;;;;;;29.27;23.08;;;11.90;99.90;;;;;;5071566;28;20044;-67
2022/10/15 01:09:28;;;;;;;34.17;23.35;;;11.80;99.90;;;;;;5074970;28;20032;-69
2022/10/15 01:11:54;;;;;;;32.03;23.77;;;11.90;99.90;;;;;;5075486;28;20034;-68
2022/10/15 01:14:43;;;;;;;35.25;24.70;;;11.90;99.90;;;;;;5075646;28;20097;-65
2022/10/15 01:17:43;;;;;;;35.20;25.05;;;11.90;99.90;;;;;;5075204;28;20036;-68
2022/10/15 01:20:40;;;;;;;31.70;23.70;;;11.90;99.90;;;;;;5074598;28;20052;-67
2022/10/15 01:23:43;;;;;;;30.75;22.73;;;11.90;99.90;;;;;;5073959;28;20048;-66
2022/10/15 01:26:20;;;;;;;;;;;11.90;99.90;;;;;;5075605;28;20039;-69
2022/10/15 01:29:40;;;;;;;33.65;23.25;;;11.80;99.90;;;;;;5058899;28;19920;-64
2022/10/15 01:32:40;;;;;;;32.47;23.73;;;11.90;99.90;;;;;;4994599;28;20397;-67
2022/10/15 01:35:17;;;;;;;33.20;23.95;;;11.90;99.90;;;;;;4994324;28;20056;-67
2022/10/15 01:38:12;;;;;;;30.10;23.45;;;11.90;99.90;;;;;;4994492;28;20052;-64
2022/10/15 01:40:49;;;;;;;31.52;23.15;;;11.80;99.90;;;;;;4976113;28;20054;-66
2022/10/15 01:43:21;;;;;;;33.13;24.15;;;11.80;99.90;;;;;;4975051;28;20081;-66
2022/10/15 01:46:00;;;;;;;31.25;22.58;;;11.80;99.90;;;;;;4943020;28;20097;-65
2022/10/15 01:48:28;;;;;;;30.55;22.67;;;11.80;99.90;;;;;;4975134;28;20038;-70
2022/10/15 01:50:58;;;;;;;31.17;23.13;;;11.80;99.90;;;;;;4990880;28;20103;-66
2022/10/15 01:53:26;;;;;;;28.80;23.50;;;11.80;99.90;;;;;;4975060;28;20166;-67
2022/10/15 01:55:56;;;;;;;34.33;24.77;;;11.80;99.90;;;;;;4974917;28;20058;-67
2022/10/15 01:58:23;;;;;;;27.00;21.92;;;11.80;99.90;;;;;;4974643;28;20046;-65
2022/10/15 02:00:50;;;;;;;30.58;20.20;;;11.80;99.90;;;;;;4974662;28;20039;-66
2022/10/15 02:03:16;;;;;;;31.13;21.45;;;11.80;99.90;;;;;;4974527;28;20042;-66
2022/10/15 02:05:51;;;;;;;31.20;22.38;;;11.80;99.90;;;;;;5012680;28;20044;-64
2022/10/15 02:08:32;;;;;;;27.17;21.38;;;11.80;99.90;;;;;;5038009;28;20037;-65
2022/10/15 02:11:11;;;;;;;33.72;23.70;;;11.80;99.90;;;;;;5054172;28;20041;-67
2022/10/15 02:13:43;;;;;;;29.10;22.00;;;11.80;99.90;;;;;;5050253;28;20039;-68
2022/10/15 02:16:15;;;;;;;27.83;20.17;;;11.80;99.90;;;;;;5054479;28;20044;-65
2022/10/15 02:18:50;;;;;;;32.25;20.15;;;11.80;99.90;;;;;;5054193;28;20084;-67
2022/10/15 02:21:28;;;;;;;29.25;20.73;;;11.80;99.90;;;;;;5053568;28;20048;-65
2022/10/15 02:24:09;;;;;;;30.23;21.98;;;11.90;99.90;;;;;;5054288;28;20048;-69
2022/10/15 02:26:36;;;;;;;30.48;21.77;;;11.80;99.90;;;;;;5037665;28;20107;-66
2022/10/15 02:29:04;;;;;;;27.30;20.42;;;11.80;99.90;;;;;;5054406;28;20403;-66
2022/10/15 02:31:33;;;;;;;27.05;20.42;;;11.80;99.90;;;;;;5053507;28;20094;-68
2022/10/15 02:34:03;;;;;;;28.77;20.83;;;11.80;99.90;;;;;;5054182;28;20045;-64
2022/10/15 02:36:29;;;;;;;28.02;20.90;;;11.80;99.90;;;;;;5053962;28;20040;-65
2022/10/15 02:38:58;;;;;;;29.77;21.60;;;11.80;99.90;;;;;;5076730;28;20078;-64
2022/10/15 02:41:26;;;;;;;25.52;19.85;;;11.80;99.90;;;;;;5073992;28;20543;-65
2022/10/15 02:43:51;;;;;;;28.42;19.20;;;11.80;99.90;;;;;;5073952;28;20072;-66
2022/10/15 02:46:18;;;;;;;27.98;20.15;;;11.80;99.90;;;;;;5073759;28;20079;-68
2022/10/15 02:48:44;;;;;;;27.83;20.42;;;11.80;99.90;;;;;;5074422;28;20092;-66
2022/10/15 02:51:10;;;;;;;29.00;20.27;;;11.80;99.90;;;;;;5073800;28;20031;-67
2022/10/15 02:53:35;;;;;;;27.88;21.75;;;11.80;99.90;;;;;;5073547;28;20444;-68
2022/10/15 02:56:01;;;;;;;27.00;20.73;;;11.80;99.90;;;;;;5073721;28;20048;-65
2022/10/15 02:58:28;;;;;;;29.63;20.33;;;11.80;99.90;;;;;;5073512;28;20063;-68
2022/10/15 03:00:54;;;;;;;29.10;22.30;;;11.80;99.90;;;;;;5073707;28;20080;-66
2022/10/15 03:03:19;;;;;;;28.38;21.10;;;11.80;99.90;;;;;;5073093;28;20051;-68
2022/10/15 03:05:45;;;;;;;27.48;19.80;;;11.80;99.90;;;;;;5073927;28;20036;-67
2022/10/15 03:08:10;;;;;;;30.42;22.30;;;11.80;99.90;;;;;;5091666;28;20039;-66
2022/10/15 03:10:36;;;;;;;29.02;21.45;;;11.80;99.90;;;;;;5073567;28;20390;-68
2022/10/15 03:13:05;;;;;;;31.20;21.75;;;11.80;99.90;;;;;;5073443;28;20040;-68
2022/10/15 03:15:32;;;;;;;30.52;20.88;;;11.80;99.90;;;;;;5055747;28;20048;-68
2022/10/15 03:17:57;;;;;;;30.80;22.08;;;11.80;99.90;;;;;;5073364;28;20054;-68
2022/10/15 03:20:23;;;;;;;33.75;21.98;;;11.70;99.90;;;;;;5073426;28;20497;-66
2022/10/15 03:22:49;;;;;;;35.35;23.55;;;11.80;99.90;;;;;;5073374;28;20047;-68
2022/10/15 03:25:14;;;;;;;31.55;21.60;;;11.70;99.90;;;;;;5072675;28;20048;-67
2022/10/15 03:27:40;;;;;;;37.70;23.77;;;11.70;99.90;;;;;;5072737;28;20111;-64
2022/10/15 03:30:06;;;;;;;30.10;22.35;;;11.70;99.90;;;;;;5073336;28;20068;-67
2022/10/15 03:32:32;;;;;;;35.05;23.73;;;11.60;99.90;;;;;;5072227;28;20136;-64
2022/10/15 03:34:58;;;;;;;34.50;23.98;;;11.60;99.90;;;;;;5072973;28;20044;-65
2022/10/15 03:37:23;;;;;;;33.50;23.73;;;11.60;99.90;;;;;;5072722;28;20401;-65
2022/10/15 03:39:49;;;;;;;33.40;23.83;;;11.60;99.90;;;;;;5055937;28;20054;-68
2022/10/15 03:42:15;;;;;;;34.10;24.33;;;11.60;99.90;;;;;;5090970;28;20032;-65
2022/10/15 03:44:40;;;;;;;38.35;25.05;;;11.50;99.90;;;;;;5072507;28;20485;-69
2022/10/15 03:47:06;;;;;;;38.35;25.02;;;11.50;99.90;;;;;;5072578;28;20050;-67
2022/10/15 03:49:32;;;;;;;37.05;24.45;;;11.50;99.90;;;;;;5055924;28;20094;-67
2022/10/15 03:51:57;;;;;;;44.00;27.83;;;11.40;99.90;;;;;;5090870;28;20086;-68
2022/10/15 03:54:23;;;;;;;37.42;24.45;;;11.50;99.90;;;;;;5072873;28;20058;-68
2022/10/15 03:56:49;;;;;;;35.38;24.67;;;11.50;99.90;;;;;;5072686;28;20372;-65
2022/10/15 03:59:15;;;;;;;34.92;23.92;;;11.40;99.90;;;;;;5072198;28;20052;-69
2022/10/15 04:01:42;;;;;;;34.10;24.75;;;11.40;99.90;;;;;;5072423;28;20395;-65
2022/10/15 04:04:11;;;;;;;37.92;25.45;;;11.40;99.90;;;;;;5072587;28;20124;-64
2022/10/15 04:06:36;;;;;;;41.10;26.58;;;11.40;99.90;;;;;;5072858;28;20131;-67
2022/10/15 04:09:02;;;;;;;37.55;27.48;;;11.40;99.90;;;;;;5090299;28;20481;-67
2022/10/15 04:11:28;;;;;;;38.97;26.70;;;11.40;99.90;;;;;;5072441;28;20032;-65
2022/10/15 04:13:53;;;;;;;38.60;26.80;;;11.40;99.90;;;;;;5072190;28;20067;-65
2022/10/15 04:16:19;;;;;;;44.30;28.02;;;11.30;99.90;;;;;;5072825;28;20040;-66
2022/10/15 04:18:44;;;;;;;37.75;27.05;;;11.30;99.90;;;;;;5072195;28;20044;-64
2022/10/15 04:21:10;;;;;;;40.58;27.38;;;11.30;99.90;;;;;;5072471;28;20084;-66
2022/10/15 04:23:36;;;;;;;44.80;28.40;;;11.30;99.90;;;;;;5055468;28;20051;-68
2022/10/15 04:26:02;;;;;;;47.78;30.65;;;11.30;99.90;;;;;;5090172;28;20044;-67
2022/10/15 04:28:28;;;;;;;49.78;30.65;;;11.30;99.90;;;;;;5055426;28;20505;-66
2022/10/15 04:31:00;;;;;;;50.20;32.13;;;11.20;99.90;;;;;;5071982;28;20032;-66
2022/10/15 04:33:26;;;;;;;47.42;30.75;;;11.20;99.90;;;;;;5072433;28;20052;-64
2022/10/15 04:36:04;;;;;;;46.15;31.30;;;11.20;99.90;;;;;;5073513;28;20520;-66
2022/10/15 04:38:29;;;;;;;44.53;29.85;;;11.20;99.90;;;;;;5071974;28;20039;-68
2022/10/15 04:41:07;;;;;;;49.22;31.73;;;11.10;99.90;;;;;;5071618;28;20387;-68
2022/10/15 04:43:34;;;;;;;40.25;28.00;;;11.20;99.90;;;;;;5075394;28;20485;-65
2022/10/15 04:46:01;;;;;;;41.90;28.20;;;11.10;99.90;;;;;;5076222;28;20482;-64
2022/10/15 04:48:29;;;;;;;39.83;27.42;;;11.10;99.90;;;;;;5059785;28;20050;-67
2022/10/15 04:50:55;;;;;;;44.30;29.60;;;11.10;99.90;;;;;;5075517;28;20044;-68
2022/10/15 04:53:21;;;;;;;44.55;29.70;;;11.10;99.90;;;;;;5094321;28;20118;-66
2022/10/15 04:55:47;;;;;;;45.78;29.73;;;11.10;99.90;;;;;;5075506;28;20520;-66
2022/10/15 04:58:13;;;;;;;47.03;30.05;;;11.10;99.90;;;;;;5075963;28;20068;-67
2022/10/15 05:00:39;;;;;;;51.15;31.67;;;11.10;99.90;;;;;;5094293;28;20036;-66
2022/10/15 05:03:07;;;;;;;43.95;30.42;;;11.10;99.90;;;;;;5075202;28;20148;-65
2022/10/15 05:05:33;;;;;;;50.53;32.60;;;11.10;99.90;;;;;;5076319;28;20474;-66
2022/10/15 05:08:03;;;;;;;53.28;33.83;;;11.10;99.90;;;;;;5075572;28;20032;-66
2022/10/15 05:10:29;;;;;;;51.33;31.75;;;11.20;99.90;;;;;;5076008;28;20071;-67
2022/10/15 05:12:54;;;;;;;53.00;33.13;;;11.20;99.90;;;;;;5058181;28;20433;-68
2022/10/15 05:15:20;;;;;;;59.30;33.35;;;11.20;99.90;;;;;;5075133;28;20040;-66
2022/10/15 05:17:45;;;;;;;46.90;31.30;;;11.20;99.90;;;;;;5074959;28;20444;-65
2022/10/15 05:20:11;;;;;;;52.35;33.42;;;11.20;99.90;;;;;;5075522;28;20047;-68
2022/10/15 05:22:37;;;;;;;59.08;34.40;;;11.30;99.90;;;;;;5093754;28;20028;-65
2022/10/15 05:25:03;;;;;;;53.70;32.85;;;11.30;99.90;;;;;;5074835;28;20058;-66
2022/10/15 05:27:28;;;;;;;55.90;32.78;;;11.30;99.90;;;;;;5075560;28;20081;-66
2022/10/15 05:29:54;;;;;;;57.88;34.50;;;11.30;99.90;;;;;;5075434;28;20421;-66
2022/10/15 05:32:19;;;;;;;51.00;33.17;;;11.30;99.90;;;;;;5093377;28;20028;-68
2022/10/15 05:34:46;;;;;;;55.55;33.83;;;11.30;99.90;;;;;;5075165;28;20032;-68
2022/10/15 05:37:11;;;;;;;54.70;33.50;;;11.30;99.90;;;;;;5074472;28;20130;-66
2022/10/15 05:39:37;;;;;;;62.50;36.03;;;11.30;99.90;;;;;;5075142;28;20135;-65
2022/10/15 05:42:03;;;;;;;56.67;33.83;;;11.40;99.90;;;;;;5075177;28;20537;-67
2022/10/15 05:44:28;;;;;;;53.92;33.88;;;11.30;99.90;;;;;;5075000;28;20119;-65
2022/10/15 05:46:54;;;;;;;57.70;34.15;;;11.40;99.90;;;;;;5075047;28;20028;-67
2022/10/15 05:49:19;;;;;;;57.70;33.35;;;11.40;99.90;;;;;;5074312;28;20043;-66
2022/10/15 05:51:45;;;;;;;59.47;33.78;;;11.40;99.90;;;;;;5075271;28;20099;-68
2022/10/15 05:54:10;;;;;;;54.47;35.22;;;11.40;99.90;;;;;;5092231;28;20040;-67
2022/10/15 05:56:36;;;;;;;63.20;35.60;;;11.40;99.90;;;;;;5058427;28;20036;-68
2022/10/15 05:59:03;;;;;;;52.15;32.92;;;11.40;99.90;;;;;;5074599;28;20040;-68
2022/10/15 06:01:29;;;;;;;56.63;33.20;;;11.40;99.90;;;;;;5058153;28;20040;-65
2022/10/15 06:03:54;;;;;;;58.72;34.47;;;11.40;99.90;;;;;;5074719;28;20141;-65
2022/10/15 06:06:22;;;;;;;55.55;33.75;;;11.40;99.90;;;;;;5074320;28;20032;-68
2022/10/15 06:08:49;;;;;;;54.35;32.60;;;11.40;99.90;;;;;;5073177;28;20036;-67
2022/10/15 06:11:16;;;;;;;55.30;34.05;;;11.50;99.90;;;;;;5072896;28;20028;-68
2022/10/15 06:13:42;;;;;;;55.15;33.22;;;11.40;99.90;;;;;;5073748;28;20050;-67
2022/10/15 06:16:09;;;;;;;56.40;34.10;;;11.40;99.90;;;;;;5057010;28;20062;-69
2022/10/15 06:18:35;;;;;;;62.80;35.95;;;11.50;99.90;;;;;;5074423;28;20043;-66
2022/10/15 06:21:02;;;;;;;63.00;36.78;;;11.50;99.90;;;;;;5073601;28;20063;-66
2022/10/15 06:23:27;;;;;;;63.53;36.28;;;11.50;99.90;;;;;;5074034;28;20477;-67
2022/10/15 06:25:53;;;;;;;60.05;34.58;;;11.50;99.90;;;;;;5074393;28;20051;-66
2022/10/15 06:28:19;;;;;;;59.38;34.95;;;11.50;99.90;;;;;;5055489;28;20048;-66
2022/10/15 06:30:45;;;;;;;58.72;35.97;;;11.50;99.90;;;;;;5092249;28;20085;-67
2022/10/15 06:33:11;;;;;;;55.17;33.70;;;11.50;99.90;;;;;;5092212;28;20046;-66
2022/10/15 06:35:36;;;;;;;50.60;31.33;;;11.50;99.90;;;;;;5073047;28;20047;-67
2022/10/15 06:38:04;;;;;;;53.22;32.75;;;11.60;99.90;;;;;;5074011;28;20115;-68
2022/10/15 06:40:30;;;;;;;52.90;33.03;;;11.60;99.90;;;;;;5073199;28;20384;-66
2022/10/15 06:43:08;;;;;;;60.85;35.30;;;11.60;99.90;;;;;;5074105;28;20044;-66
2022/10/15 06:45:37;;;;;;;54.15;32.83;;;11.60;99.90;;;;;;5071936;28;20081;-66
2022/10/15 06:48:04;;;;;;;56.80;34.63;;;11.70;99.90;;;;;;5073940;28;20047;-66
2022/10/15 06:50:31;;;;;;;59.65;35.17;;;11.70;99.90;;;;;;5073944;28;20470;-68
2022/10/15 06:52:57;;;;;;;52.55;32.88;;;11.70;99.90;;;;;;5074131;28;20061;-66
2022/10/15 06:55:23;;;;;;;56.80;33.28;;;11.70;99.90;;;;;;5056711;28;20418;-65
2022/10/15 06:57:49;;;;;;;54.65;33.95;;;11.80;99.90;;;;;;5073847;28;20036;-66
2022/10/15 07:00:15;;;;;;;54.50;33.80;;;11.80;99.90;;;;;;5073652;28;20399;-65
2022/10/15 07:02:41;;;;;;;58.92;33.95;;;11.80;99.90;;;;;;5073274;28;20161;-66
2022/10/15 07:05:08;;;;;;;53.47;33.88;;;11.90;99.90;;;;;;5073068;28;20055;-65
2022/10/15 07:07:33;;;;;;;48.85;31.10;;;11.90;99.90;;;;;;5072532;28;20386;-68
2022/10/15 07:09:59;;;;;;;55.45;32.85;;;11.90;99.90;;;;;;5073446;28;20044;-67
2022/10/15 07:12:25;;;;;;;54.40;32.58;;;11.90;99.90;;;;;;5073398;28;20127;-68
2022/10/15 07:14:50;;;;;;;48.88;31.45;;;12.00;99.90;;;;;;5073454;28;20205;-67
2022/10/15 07:17:16;;;;;;;55.05;35.13;;;12.00;99.90;;;;;;5072948;28;20043;-67
2022/10/15 07:19:42;;;;;;;55.30;33.85;;;12.00;99.90;;;;;;5072851;28;20134;-66
2022/10/15 07:22:08;;;;;;;49.92;32.05;;;12.00;99.90;;;;;;5091574;28;20036;-65
2022/10/15 07:24:34;;;;;;;50.83;33.17;;;12.00;99.90;;;;;;5073040;28;20388;-70
2022/10/15 07:27:00;;;;;;;51.85;33.42;;;12.00;99.90;;;;;;5073095;28;20063;-69
2022/10/15 07:29:25;;;;;;;53.33;34.53;;;12.00;99.90;;;;;;5055674;28;20061;-66
2022/10/15 07:31:51;;;;;;;51.13;34.88;;;12.00;99.90;;;;;;5071888;28;21600;-68
2022/10/15 07:34:16;;;;;;;49.55;33.28;;;12.00;99.90;;;;;;5069390;28;20060;-67
2022/10/15 07:36:42;;;;;;;49.50;33.25;;;12.00;99.90;;;;;;5072865;28;20044;-67
2022/10/15 07:39:09;;;;;;;48.47;33.55;;;12.00;99.90;;;;;;5076139;28;20051;-69
2022/10/15 07:41:34;;;;;;;55.90;35.88;;;12.00;99.90;;;;;;5090104;28;20817;-67
2022/10/15 07:44:00;;;;;;;56.22;35.90;;;12.00;99.90;;;;;;5090070;28;20044;-69
2022/10/15 07:46:25;;;;;;;55.83;36.47;;;12.00;99.90;;;;;;5089977;28;20139;-66
2022/10/15 07:48:51;;;;;;;55.80;35.33;;;12.00;99.90;;;;;;5090635;28;20047;-67
2022/10/15 07:51:17;;;;;;;53.95;34.35;;;12.10;99.90;;;;;;5089638;28;20047;-68
2022/10/15 07:53:43;;;;;;;58.10;36.40;;;12.10;99.90;;;;;;5089315;28;20067;-67
2022/10/15 07:56:11;;;;;;;56.42;36.15;;;12.10;99.90;;;;;;5089955;28;20047;-69
2022/10/15 07:58:37;;;;;;;57.58;37.45;;;12.20;99.90;;;;;;5089758;28;20039;-66
2022/10/15 08:01:07;;;;;;;58.72;37.05;;;12.20;99.90;;;;;;5084081;28;20040;-69
2022/10/15 08:03:34;;;;;;;61.05;37.72;;;12.20;99.90;;;;;;5089246;28;20090;-68
2022/10/15 08:06:04;;;;;;;66.50;38.65;;;12.20;99.90;;;;;;5089778;28;20406;-69
2022/10/15 08:08:30;;;;;;;66.80;39.42;;;12.20;99.90;;;;;;5089905;28;20112;-66
2022/10/15 08:10:56;;;;;;;59.15;38.28;;;12.20;99.90;;;;;;5089658;28;20115;-66
2022/10/15 08:13:22;;;;;;;62.00;38.25;;;12.30;99.90;;;;;;5089358;28;20479;-68
2022/10/15 08:15:48;;;;;;;71.38;40.33;;;12.30;99.90;;;;;;5089306;28;20584;-68
2022/10/15 08:18:14;;;;;;;64.25;38.40;;;12.30;99.90;;;;;;5089433;28;20115;-69
2022/10/15 08:20:39;;;;;;;66.55;39.40;;;12.40;99.90;;;;;;5089542;28;20043;-69
2022/10/15 08:23:13;;;;;;;74.10;41.10;;;12.40;99.90;;;;;;5089229;28;20039;-66
2022/10/15 08:25:39;;;;;;;69.05;39.90;;;12.40;99.90;;;;;;5089155;28;20048;-66
2022/10/15 08:28:05;;;;;;;72.20;41.22;;;12.40;99.90;;;;;;5089105;28;20046;-67
2022/10/15 08:30:31;;;;;;;77.00;41.78;;;12.40;99.90;;;;;;5072138;28;20482;-69
2022/10/15 08:32:56;;;;;;;75.80;40.10;;;12.40;99.90;;;;;;5089271;28;20544;-68
2022/10/15 08:35:22;;;;;;;73.32;39.47;;;12.50;99.90;;;;;;5089457;28;20046;-68
2022/10/15 08:37:48;;;;;;;75.18;40.67;;;12.50;99.90;;;;;;5088336;28;20040;-69
2022/10/15 08:40:15;;;;;;;79.13;41.58;;;12.50;99.90;;;;;;5072049;28;20417;-69
2022/10/15 08:42:44;;;;;;;74.72;39.45;;;12.50;99.90;;;;;;5089651;28;20375;-68
2022/10/15 08:45:15;;;;;;;76.63;39.50;;;12.50;99.90;;;;;;5089038;28;20083;-67
2022/10/15 08:47:49;;;;;;;75.95;38.80;;;12.50;99.90;;;;;;5089421;28;20101;-67
2022/10/15 08:50:37;;;;;;;68.82;38.03;;;12.50;99.90;;;;;;5088861;28;20086;-66
2022/10/15 08:53:03;;;;;;;77.30;37.92;;;12.50;99.90;;;;;;5088699;28;20048;-68
2022/10/15 08:55:37;;;;;;;74.22;37.40;;;12.60;99.90;;;;;;5089391;28;20040;-68
2022/10/15 08:58:15;;;;;;;74.82;36.97;;;12.60;99.90;;;;;;5088836;28;20398;-68
2022/10/15 09:01:00;;;;;;;66.00;35.25;;;12.60;99.90;;;;;;5089308;28;20051;-68
2022/10/15 09:03:47;;;;;;;63.70;34.13;;;12.60;99.90;;;;;;5082030;28;20043;-68
2022/10/15 09:06:27;;;;;;;59.53;32.80;;;12.60;99.90;;;;;;5085868;28;20052;-68
2022/10/15 09:09:06;;;;;;;54.70;30.42;;;12.60;99.90;;;;;;5084854;28;20040;-68
2022/10/15 09:11:44;;;;;;;56.67;32.20;;;12.60;99.90;;;;;;5086908;28;20043;-67
2022/10/15 09:14:14;;;;;;;54.13;29.40;;;12.70;99.90;;;;;;5072027;28;20557;-66
2022/10/15 09:16:43;;;;;;;59.35;30.83;;;12.70;99.90;;;;;;5090225;28;20094;-67
2022/10/15 09:19:18;;;;;;;50.42;28.20;;;12.70;99.90;;;;;;5089006;28;20487;-66
2022/10/15 09:21:46;;;;;;;45.53;27.08;;;12.80;99.90;;;;;;5088310;28;20387;-66
2022/10/15 09:24:22;;;;;;;44.85;26.70;;;12.80;99.90;;;;;;5073627;28;20109;-68
2022/10/15 09:27:19;;;;;;;41.40;25.10;;;12.80;99.90;;;;;;5086388;28;20036;-68
2022/10/15 09:30:02;;;;;;;38.38;24.38;;;12.80;99.90;;;;;;5088172;28;20028;-66
2022/10/15 09:32:48;;;;;;;41.95;25.20;;;12.90;99.90;;;;;;5121162;27;20036;-69
2022/10/15 09:35:18;;;;;;;61.40;42.17;;;12.90;99.90;;;;;;5074749;28;20056;-67
2022/10/15 09:38:12;;;;;;;40.97;24.50;;;13.00;99.90;;;;;;5092589;28;20039;-67
2022/10/15 09:40:40;;;;;;;39.47;24.30;;;13.00;99.90;;;;;;5091624;28;20132;-67
2022/10/15 09:43:07;;;;;;;39.17;23.13;;;13.10;99.90;;;;;;5093720;28;20542;-67
2022/10/15 09:45:32;;;;;;;38.20;24.35;;;13.10;99.90;;;;;;5091572;28;20044;-66
2022/10/15 09:48:00;;;;;;;35.55;23.15;;;13.20;99.90;;;;;;5079051;28;20318;-66
2022/10/15 09:50:34;;;;;;;36.70;21.92;;;13.30;99.90;;;;;;5080112;28;20032;-66
2022/10/15 09:53:03;;;;;;;36.15;22.30;;;13.40;99.90;;;;;;5074669;28;20512;-67
2022/10/15 09:55:31;;;;;;;35.25;22.48;;;13.40;99.90;;;;;;5083627;28;20122;-68
2022/10/15 09:58:02;;;;;;;30.35;21.38;;;13.50;99.90;;;;;;5093181;28;20592;-68
2022/10/15 10:00:53;;;;;;;32.78;21.02;;;13.50;99.90;;;;;;5091660;28;20397;-66
2022/10/15 10:03:23;;;;;;;27.88;18.75;;;13.60;99.90;;;;;;5090329;28;20048;-67
2022/10/15 10:05:49;;;;;;;28.85;18.98;;;13.60;99.90;;;;;;5092136;28;20456;-69
2022/10/15 10:08:15;;;;;;;30.25;18.90;;;13.60;99.90;;;;;;5091735;28;20040;-66
2022/10/15 10:10:41;;;;;;;26.73;18.40;;;13.60;99.90;;;;;;5091830;28;20028;-67
2022/10/15 10:13:22;;;;;;;30.35;19.65;;;13.70;99.90;;;;;;5090184;28;20451;-68
2022/10/15 10:15:52;;;;;;;28.75;18.33;;;13.70;99.90;;;;;;5091728;28;20126;-67
2022/10/15 10:18:19;;;;;;;26.65;17.85;;;14.00;99.90;;;;;;5094554;28;20090;-67
2022/10/15 10:21:00;;;;;;;25.63;18.65;;;14.50;99.90;;;;;;5069662;28;20054;-66
2022/10/15 10:23:34;;;;;;;26.42;17.70;;;14.90;99.90;;;;;;5070077;28;20486;-66
2022/10/15 10:26:03;;;;;;;26.60;18.42;;;15.00;99.90;;;;;;5091049;28;20527;-66
2022/10/15 10:28:31;;;;;;;24.75;18.17;;;14.90;99.90;;;;;;5090857;28;20105;-66
2022/10/15 10:30:59;;;;;;;24.30;19.13;;;14.90;99.90;;;;;;5091142;28;20123;-65
2022/10/15 10:33:25;;;;;;;25.33;18.60;;;14.80;99.90;;;;;;5090792;28;20406;-67
2022/10/15 10:35:51;;;;;;;24.27;17.70;;;14.80;99.90;;;;;;5089354;28;20043;-65
2022/10/15 10:38:22;;;;;;;24.95;18.70;;;14.70;99.90;;;;;;5090640;28;20482;-66
2022/10/15 10:40:59;;;;;;;23.85;18.25;;;14.70;99.90;;;;;;5089402;28;20055;-67
2022/10/15 10:43:27;;;;;;;24.00;18.40;;;14.60;99.90;;;;;;5122714;27;20044;-68
2022/10/15 10:45:53;;;;;;;26.98;18.70;;;14.60;99.90;;;;;;5090845;28;20105;-67
2022/10/15 10:48:31;;;;;;;24.23;17.15;;;14.60;99.90;;;;;;5089428;28;20040;-65
2022/10/15 10:51:12;;;;;;;21.05;16.83;;;14.60;99.90;;;;;;5088939;28;20032;-66
2022/10/15 10:53:58;;;;;;;21.85;16.55;;;14.60;99.90;;;;;;5093658;28;20054;-66
2022/10/15 10:56:37;;;;;;;22.30;16.40;;;14.50;99.90;;;;;;5090399;28;20078;-68
2022/10/15 10:59:24;;;;;;;25.10;18.17;;;14.60;99.90;;;;;;5090362;28;20572;-69
2022/10/15 11:01:51;;;;;;;25.42;17.75;;;14.50;99.90;;;;;;5089733;28;20056;-69
2022/10/15 11:04:29;;;;;;;23.33;17.83;;;14.60;99.90;;;;;;5093217;28;20048;-67
2022/10/15 11:06:59;;;;;;;23.15;16.83;;;14.60;99.90;;;;;;5092946;28;20046;-67
2022/10/15 11:09:50;;;;;;;23.13;16.77;;;14.60;99.90;;;;;;5090425;28;20375;-69
2022/10/15 11:12:21;;;;;;;22.23;16.38;;;14.60;99.90;;;;;;5092975;28;20121;-66
2022/10/15 11:15:20;;;;;;;23.77;18.05;;;14.60;99.90;;;;;;5090452;28;20443;-66
2022/10/15 11:18:28;;;;;;;23.58;16.73;;;14.50;99.90;;;;;;5091213;28;20465;-67
2022/10/15 11:21:05;;;;;;;21.55;16.92;;;14.60;99.90;;;;;;5079992;28;20084;-68
2022/10/15 11:24:07;;;;;;;20.88;15.95;;;14.60;99.90;;;;;;5092085;28;20495;-68
2022/10/15 11:26:55;;;;;;;20.40;15.60;;;14.60;99.90;;;;;;5088099;28;20380;-65
2022/10/15 11:29:46;;;;;;;20.63;15.73;;;14.60;99.90;;;;;;5087952;28;20036;-66
2022/10/15 11:32:39;;;;;;;19.75;15.70;;;14.60;99.90;;;;;;5070090;28;20105;-68
2022/10/15 11:35:23;;;;;;;20.83;15.55;;;14.60;99.90;;;;;;5066900;28;20051;-68
2022/10/15 11:38:18;;;;;;;20.13;15.32;;;14.60;99.90;;;;;;5087180;28;20471;-67
2022/10/15 11:40:51;;;;;;;19.55;16.50;;;14.60;99.90;;;;;;5092295;28;20414;-68
2022/10/15 11:43:48;;;;;;;19.80;15.57;;;14.60;99.90;;;;;;5089962;28;20043;-66
2022/10/15 11:46:35;;;;;;;21.95;15.57;;;14.60;99.90;;;;;;5092674;28;20391;-66
2022/10/15 11:49:22;;;;;;;20.33;15.20;;;14.80;99.90;;;;;;5072823;28;20123;-68
2022/10/15 11:52:05;;;;;;;22.30;16.55;;;14.90;99.90;;;;;;5088832;28;20430;-69
2022/10/15 11:54:36;;;;;;;19.58;14.80;;;14.90;99.90;;;;;;5089653;28;20085;-68
2022/10/15 11:57:03;;;;;;;20.10;16.08;;;14.90;99.90;;;;;;5077623;28;20032;-67
2022/10/15 11:59:37;;;;;;;21.38;16.67;;;15.00;99.90;;;;;;5090858;28;20032;-68
2022/10/15 12:02:09;;;;;;;21.52;15.80;;;15.00;99.90;;;;;;5086388;28;20358;-67
2022/10/15 12:04:41;;;;;;;23.70;16.58;;;15.00;99.90;;;;;;5070299;28;20044;-67
2022/10/15 12:07:15;;;;;;;19.40;15.35;;;15.00;99.90;;;;;;5086651;28;20036;-67
2022/10/15 12:09:45;;;;;;;22.33;16.20;;;15.00;99.90;;;;;;5088557;28;20521;-67
2022/10/15 12:12:38;;;;;;;21.55;15.60;;;14.90;99.90;;;;;;5089208;28;20513;-67
2022/10/15 12:15:31;;;;;;;19.15;14.55;;;14.90;99.90;;;;;;5086216;28;20487;-65
2022/10/15 12:18:30;;;;;;;21.65;16.63;;;14.90;99.90;;;;;;5085955;28;20040;-68
2022/10/15 12:20:57;;;;;;;21.23;15.88;;;14.90;99.90;;;;;;5087984;28;20035;-67
2022/10/15 12:23:37;;;;;;;23.45;17.08;;;14.90;99.90;;;;;;5088345;28;20118;-68
2022/10/15 12:26:23;;;;;;;21.83;16.52;;;14.80;99.90;;;;;;5090998;28;20119;-68
2022/10/15 12:28:56;;;;;;;21.42;15.80;;;14.80;99.90;;;;;;5052974;28;20075;-67
2022/10/15 12:31:23;;;;;;;;;;;14.70;99.90;;;;;;5089313;28;20051;-68
2022/10/15 12:33:56;;;;;;;21.02;15.40;;;14.70;99.90;;;;;;5071438;28;19959;-66
2022/10/15 12:36:28;;;;;;;24.50;17.42;;;14.70;99.90;;;;;;5085976;28;20176;-68
2022/10/15 12:39:06;;;;;;;20.42;16.13;;;14.60;99.90;;;;;;5088504;28;20057;-66
2022/10/15 12:41:42;;;;;;;19.63;14.85;;;14.60;99.90;;;;;;5088178;28;20040;-68
2022/10/15 12:44:22;;;;;;;20.92;15.05;;;14.60;99.90;;;;;;5087760;28;20059;-68
2022/10/15 12:46:48;;;;;;;21.35;16.75;;;14.60;99.90;;;;;;5088401;28;20047;-66